Time;durP1;ratioP1;P1;durP2;ratioP2;P2;SDS_P1;SDS_P2;PMS_P1;PMS_P2;Temp;Humidity;BMP_temperature;BMP_pressure;BME280_temperature;BME280_humidity;BME280_pressure;Samples;Min_cycle;Max_cycle;Signal;HPM_P1;HPM_P2
2021/11/01 00:00:45;;;;;;;1.67;1.57;;;;;;;;;;482962;244;28376;-80
2021/11/01 00:02:55;;;;;;;2.10;1.43;;;;;;;;;;483575;244;27424;-81
2021/11/01 00:05:05;;;;;;;1.47;1.37;;;;;;;;;;477583;245;27125;-81
2021/11/01 00:07:16;;;;;;;3.80;1.53;;;;;;;;;;477012;249;27253;-81
2021/11/01 00:09:17;;;;;;;2.40;1.20;;;12.10;99.90;;;;;;484788;245;27072;-83
2021/11/01 00:11:19;;;;;;;1.30;1.20;;;12.10;99.90;;;;;;477035;249;28232;-81
2021/11/01 00:13:20;;;;;;;1.80;1.03;;;12.00;99.90;;;;;;484785;245;28030;-80
2021/11/01 00:15:21;;;;;;;1.13;1.00;;;11.90;99.90;;;;;;477033;249;28399;-82
2021/11/01 00:17:22;;;;;;;1.33;1.17;;;11.90;99.90;;;;;;484768;245;28393;-81
2021/11/01 00:19:24;;;;;;;1.67;1.47;;;11.80;99.90;;;;;;477054;249;28152;-82
2021/11/01 00:21:25;;;;;;;1.20;1.10;;;11.20;99.90;;;;;;484823;245;28411;-80
2021/11/01 00:23:26;;;;;;;1.77;1.40;;;11.80;99.90;;;;;;477013;249;28419;-81
2021/11/01 00:25:27;;;;;;;2.73;1.33;;;11.90;99.90;;;;;;484757;245;28403;-82
2021/11/01 00:27:29;;;;;;;3.60;1.87;;;11.70;99.90;;;;;;477651;245;28732;-82
2021/11/01 00:29:30;;;;;;;3.63;3.37;;;11.70;99.90;;;;;;478866;245;28986;-80
2021/11/01 00:31:31;;;;;;;3.60;3.30;;;11.60;99.90;;;;;;481973;245;28236;-81
2021/11/01 00:33:33;;;;;;;3.97;3.30;;;;;;;;;;485277;245;28300;-81
2021/11/01 00:35:38;;;;;;;3.03;2.73;;;;;;;;;;482018;245;26981;-82
2021/11/01 00:37:39;;;;;;;2.53;2.33;;;11.50;99.90;;;;;;480883;245;27458;-81
2021/11/01 00:39:43;;;;;;;2.43;2.33;;;;;;;;;;479773;245;28517;-79
2021/11/01 00:41:44;;;;;;;3.07;2.67;;;11.50;99.90;;;;;;483104;245;27059;-81
2021/11/01 00:43:48;;;;;;;4.07;2.90;;;;;;;;;;488033;240;28012;-82
2021/11/01 00:45:49;;;;;;;6.30;3.67;;;11.40;99.90;;;;;;491974;240;26875;-82
2021/11/01 00:47:50;;;;;;;3.87;3.57;;;11.40;99.90;;;;;;489372;241;28445;-80
2021/11/01 00:49:52;;;;;;;3.17;2.97;;;11.40;99.90;;;;;;489393;240;28161;-83
2021/11/01 00:51:54;;;;;;;2.87;2.67;;;11.40;99.90;;;;;;484518;245;28121;-81
2021/11/01 00:53:54;;;;;;;4.00;3.70;;;11.40;99.90;;;;;;492282;240;27966;-81
2021/11/01 00:55:55;;;;;;;3.93;3.63;;;11.40;99.90;;;;;;482773;244;28297;-81
2021/11/01 00:57:56;;;;;;;4.40;4.10;;;11.40;99.90;;;;;;476613;242;28416;-80
2021/11/01 01:00:01;;;;;;;5.43;5.03;;;11.40;99.90;;;;;;486378;241;28331;-81
2021/11/01 01:02:02;;;;;;;4.87;4.57;;;11.30;99.90;;;;;;492261;241;28087;-82
2021/11/01 01:04:03;;;;;;;6.83;5.20;;;11.30;99.90;;;;;;492714;241;28122;-81
2021/11/01 01:06:04;;;;;;;7.27;4.80;;;11.30;99.90;;;;;;492870;241;28151;-82
2021/11/01 01:08:06;;;;;;;4.33;3.93;;;11.30;99.90;;;;;;492786;241;28556;-82
2021/11/01 01:10:07;;;;;;;4.00;3.63;;;11.20;99.90;;;;;;492873;241;28705;-80
2021/11/01 01:12:08;;;;;;;3.63;3.33;;;11.20;99.90;;;;;;492836;241;28760;-82
2021/11/01 01:14:09;;;;;;;3.27;2.97;;;11.20;99.90;;;;;;488968;241;27992;-80
2021/11/01 01:16:38;;;;;;;3.00;2.80;;;11.20;99.90;;;;;;484771;245;28223;-82
2021/11/01 01:18:17;;;;;;;2.57;2.33;;;11.20;99.90;;;;;;483470;242;28415;-81
2021/11/01 01:20:14;;;;;;;2.50;2.30;;;11.20;99.90;;;;;;484864;245;28387;-81
2021/11/01 01:22:29;;;;;;;2.23;2.00;;;11.10;99.90;;;;;;485188;242;27998;-81
2021/11/01 01:24:31;;;;;;;1.90;1.80;;;11.00;99.90;;;;;;485138;242;27977;-82
2021/11/01 01:26:32;;;;;;;2.50;1.80;;;11.00;99.90;;;;;;485278;242;27737;-82
2021/11/01 01:28:33;;;;;;;3.93;2.00;;;11.00;99.90;;;;;;485401;245;28130;-80
2021/11/01 01:30:35;;;;;;;1.80;1.70;;;10.90;99.90;;;;;;485188;242;28021;-81
2021/11/01 01:32:36;;;;;;;1.37;1.27;;;10.90;99.90;;;;;;485313;245;28126;-80
2021/11/01 01:34:37;;;;;;;2.20;1.50;;;10.90;99.90;;;;;;485299;245;28205;-80
2021/11/01 01:36:38;;;;;;;2.90;1.50;;;10.90;99.90;;;;;;485040;242;28015;-82
2021/11/01 01:38:40;;;;;;;2.33;1.70;;;11.00;99.90;;;;;;485268;242;27890;-81
2021/11/01 01:40:41;;;;;;;2.60;1.70;;;10.90;99.90;;;;;;485268;245;28749;-81
2021/11/01 01:42:42;;;;;;;1.90;1.80;;;10.90;99.90;;;;;;485239;242;28469;-81
2021/11/01 01:44:43;;;;;;;2.00;1.90;;;10.90;99.90;;;;;;485339;245;28601;-78
2021/11/01 01:46:44;;;;;;;3.20;2.40;;;10.80;99.90;;;;;;485255;242;28493;-82
2021/11/01 01:48:46;;;;;;;2.73;2.53;;;10.80;99.90;;;;;;485236;242;28043;-83
2021/11/01 01:50:47;;;;;;;2.60;2.40;;;10.90;99.90;;;;;;485181;242;27830;-81
2021/11/01 01:52:53;;;;;;;4.63;2.33;;;10.80;99.90;;;;;;485327;245;28087;-80
2021/11/01 01:54:50;;;;;;;3.83;3.53;;;10.80;99.90;;;;;;484964;245;28009;-79
2021/11/01 01:56:51;;;;;;;3.23;3.00;;;10.80;99.90;;;;;;485237;242;27824;-82
2021/11/01 01:58:54;;;;;;;2.90;2.70;;;10.80;99.90;;;;;;485379;245;27876;-80
2021/11/01 02:01:08;;;;;;;2.37;2.27;;;10.80;99.90;;;;;;485441;242;28141;-78
2021/11/01 02:02:55;;;;;;;2.30;2.10;;;10.80;99.90;;;;;;484551;241;27910;-83
2021/11/01 02:04:56;;;;;;;2.40;2.30;;;10.80;99.90;;;;;;483079;245;27872;-79
2021/11/01 02:07:05;;;;;;;2.10;2.00;;;10.80;99.90;;;;;;485700;242;27942;-78
2021/11/01 02:08:59;;;;;;;1.70;1.53;;;10.80;99.90;;;;;;482894;242;27953;-81
2021/11/01 02:11:00;;;;;;;1.80;1.70;;;10.80;99.90;;;;;;485699;245;28038;-79
2021/11/01 02:13:04;;;;;;;1.87;1.77;;;10.80;99.90;;;;;;485555;242;27925;-81
2021/11/01 02:15:03;;;;;;;1.77;1.67;;;10.80;99.90;;;;;;485471;245;27749;-81
2021/11/01 02:17:04;;;;;;;2.10;1.40;;;10.80;99.90;;;;;;485541;242;28035;-79
2021/11/01 02:19:08;;;;;;;1.47;1.37;;;10.80;99.90;;;;;;485534;242;28191;-81
2021/11/01 02:21:07;;;;;;;1.40;1.30;;;10.80;99.90;;;;;;477424;242;28463;-80
2021/11/01 02:23:08;;;;;;;1.17;1.17;;;10.90;99.90;;;;;;485408;242;29096;-79
2021/11/01 02:25:09;;;;;;;1.50;1.40;;;10.80;99.90;;;;;;484620;245;28575;-80
2021/11/01 02:27:12;;;;;;;1.30;1.20;;;10.80;99.90;;;;;;485625;245;28182;-79
2021/11/01 02:29:11;;;;;;;1.10;1.10;;;10.90;99.90;;;;;;482629;245;27881;-80
2021/11/01 02:31:16;;;;;;;1.40;1.30;;;10.80;99.90;;;;;;485796;245;28023;-81
2021/11/01 02:33:14;;;;;;;1.30;1.20;;;10.80;99.90;;;;;;485647;241;27797;-80
2021/11/01 02:35:15;;;;;;;1.40;1.30;;;10.80;99.90;;;;;;485713;242;27886;-82
2021/11/01 02:37:16;;;;;;;1.30;1.20;;;10.80;99.90;;;;;;485706;245;27984;-80
2021/11/01 02:39:18;;;;;;;1.37;1.17;;;10.80;99.90;;;;;;485661;242;27932;-82
2021/11/01 02:41:19;;;;;;;2.10;1.27;;;10.70;99.90;;;;;;485729;242;27904;-82
2021/11/01 02:43:20;;;;;;;1.20;1.10;;;10.70;99.90;;;;;;485712;245;27733;-80
2021/11/01 02:45:21;;;;;;;2.83;1.07;;;10.70;99.90;;;;;;485568;242;28330;-82
2021/11/01 02:47:23;;;;;;;2.10;1.13;;;10.70;99.90;;;;;;485616;245;28445;-80
2021/11/01 02:49:24;;;;;;;1.63;1.10;;;10.70;99.90;;;;;;485654;245;28194;-81
2021/11/01 02:51:25;;;;;;;1.27;1.17;;;10.70;99.90;;;;;;484716;242;28025;-81
2021/11/01 02:53:27;;;;;;;1.10;1.10;;;10.60;99.90;;;;;;484129;242;27981;-79
2021/11/01 02:55:28;;;;;;;5.03;1.87;;;10.60;99.90;;;;;;484363;245;28088;-81
2021/11/01 02:57:29;;;;;;;1.20;1.10;;;10.60;99.90;;;;;;485765;245;27900;-80
2021/11/01 02:59:30;;;;;;;2.00;1.30;;;10.60;99.90;;;;;;485709;242;27865;-82
2021/11/01 03:01:32;;;;;;;1.30;1.20;;;10.50;99.90;;;;;;485651;245;27891;-81
2021/11/01 03:03:33;;;;;;;1.10;1.10;;;10.50;99.90;;;;;;485589;242;27944;-80
2021/11/01 03:05:34;;;;;;;1.70;1.20;;;10.50;99.90;;;;;;485682;242;27703;-81
2021/11/01 03:07:35;;;;;;;1.50;1.30;;;10.50;99.90;;;;;;485745;245;28047;-82
2021/11/01 03:09:37;;;;;;;1.20;1.10;;;10.50;99.90;;;;;;488914;242;29338;-82
2021/11/01 03:11:38;;;;;;;1.80;1.70;;;10.50;99.90;;;;;;484437;242;28479;-81
2021/11/01 03:13:39;;;;;;;3.03;1.37;;;10.50;99.90;;;;;;485681;245;27764;-79
2021/11/01 03:15:40;;;;;;;1.33;1.23;;;10.50;99.90;;;;;;485624;242;27984;-81
2021/11/01 03:17:42;;;;;;;5.23;1.50;;;10.50;99.90;;;;;;485675;245;27964;-81
2021/11/01 03:19:43;;;;;;;3.87;1.47;;;10.50;99.90;;;;;;485711;245;27814;-81
2021/11/01 03:21:44;;;;;;;4.13;1.37;;;10.50;99.90;;;;;;485669;245;27832;-81
2021/11/01 03:23:47;;;;;;;2.03;1.50;;;10.50;99.90;;;;;;485666;245;28017;-80
2021/11/01 03:25:47;;;;;;;1.37;1.27;;;10.40;99.90;;;;;;485611;245;27884;-81
2021/11/01 03:27:48;;;;;;;1.40;1.30;;;10.50;99.90;;;;;;485709;245;27954;-82
2021/11/01 03:29:49;;;;;;;1.50;1.40;;;10.40;99.90;;;;;;485625;242;27932;-81
2021/11/01 03:31:50;;;;;;;2.40;1.33;;;10.40;99.90;;;;;;485653;242;27889;-83
2021/11/01 03:33:52;;;;;;;3.20;1.43;;;10.50;99.90;;;;;;485630;242;28512;-81
2021/11/01 03:35:53;;;;;;;2.37;1.40;;;10.40;99.90;;;;;;484999;242;28568;-80
2021/11/01 03:37:56;;;;;;;1.73;1.20;;;10.40;99.90;;;;;;485339;245;28479;-80
2021/11/01 03:39:55;;;;;;;5.63;1.27;;;10.40;99.90;;;;;;485369;242;27943;-80
2021/11/01 03:41:57;;;;;;;2.53;1.40;;;10.40;99.90;;;;;;485727;245;27836;-82
2021/11/01 03:44:02;;;;;;;1.43;1.33;;;10.40;99.90;;;;;;485615;242;27895;-81
2021/11/01 03:46:00;;;;;;;3.00;1.53;;;10.40;99.90;;;;;;485321;245;27736;-82
2021/11/01 03:48:07;;;;;;;4.47;1.40;;;10.40;99.90;;;;;;485621;242;27880;-82
2021/11/01 03:50:15;;;;;;;1.47;1.37;;;10.40;99.90;;;;;;485251;245;28411;-82
2021/11/01 03:52:10;;;;;;;1.40;1.30;;;10.40;99.90;;;;;;484663;245;28464;-80
2021/11/01 03:54:07;;;;;;;1.60;1.50;;;10.40;99.90;;;;;;485191;242;28481;-80
2021/11/01 03:56:08;;;;;;;2.10;1.43;;;10.40;99.90;;;;;;485594;245;28033;-81
2021/11/01 03:58:09;;;;;;;2.60;1.60;;;10.40;99.90;;;;;;485337;242;28022;-80
2021/11/01 04:00:11;;;;;;;1.80;1.53;;;10.40;99.90;;;;;;485574;241;27642;-81
2021/11/01 04:02:13;;;;;;;1.60;1.50;;;10.40;99.90;;;;;;485591;245;27807;-80
2021/11/01 04:04:14;;;;;;;1.30;1.20;;;10.50;99.90;;;;;;485491;242;27842;-81
2021/11/01 04:06:17;;;;;;;1.70;1.30;;;10.40;99.90;;;;;;485483;245;28103;-81
2021/11/01 04:08:17;;;;;;;3.47;1.40;;;10.40;99.90;;;;;;485410;242;27610;-80
2021/11/01 04:10:17;;;;;;;2.00;1.73;;;10.40;99.90;;;;;;485604;245;27816;-82
2021/11/01 04:12:18;;;;;;;3.03;2.10;;;10.40;99.90;;;;;;485410;242;27863;-81
2021/11/01 04:14:24;;;;;;;3.53;2.40;;;10.40;99.90;;;;;;485622;245;28547;-82
2021/11/01 04:16:24;;;;;;;2.90;2.30;;;10.40;99.90;;;;;;485129;242;28698;-80
2021/11/01 04:18:30;;;;;;;3.80;2.30;;;10.40;99.90;;;;;;484655;242;28115;-81
2021/11/01 04:20:32;;;;;;;4.10;2.10;;;10.40;99.90;;;;;;484200;245;28125;-82
2021/11/01 04:22:30;;;;;;;2.30;2.10;;;10.40;99.90;;;;;;484235;245;27945;-82
2021/11/01 04:24:30;;;;;;;1.93;1.80;;;10.40;99.90;;;;;;485354;245;28061;-81
2021/11/01 04:26:30;;;;;;;2.40;2.20;;;10.40;99.90;;;;;;485441;245;28261;-82
2021/11/01 04:28:32;;;;;;;4.73;2.07;;;10.40;99.90;;;;;;485625;245;27763;-81
2021/11/01 04:30:41;;;;;;;2.40;2.10;;;10.40;99.90;;;;;;485570;242;27920;-81
2021/11/01 04:32:42;;;;;;;3.73;2.13;;;10.40;99.90;;;;;;484609;245;28456;-83
2021/11/01 04:34:46;;;;;;;3.27;2.17;;;10.40;99.90;;;;;;485392;242;28316;-81
2021/11/01 04:36:42;;;;;;;2.60;2.03;;;10.40;99.90;;;;;;485123;241;27925;-80
2021/11/01 04:41:58;;;;;;;3.07;1.73;;;10.40;99.90;;;;;;470588;248;28501;-83
2021/11/01 04:43:22;;;;;;;2.40;2.03;;;10.40;99.90;;;;;;470425;245;27967;-80
2021/11/01 04:54:11;;;;;;;2.70;1.53;;;10.40;99.90;;;;;;483759;242;27873;-80
2021/11/01 04:56:13;;;;;;;2.50;1.80;;;10.30;99.90;;;;;;485413;245;27785;-83
2021/11/01 04:58:14;;;;;;;6.23;2.03;;;10.30;99.90;;;;;;485456;242;28036;-81
2021/11/01 05:00:15;;;;;;;3.97;2.03;;;10.40;99.90;;;;;;485518;242;28057;-80
2021/11/01 05:02:18;;;;;;;3.80;2.00;;;10.40;99.90;;;;;;485563;245;27962;-82
2021/11/01 05:04:22;;;;;;;5.07;2.20;;;10.40;99.90;;;;;;485399;242;27809;-81
2021/11/01 05:06:22;;;;;;;5.70;2.00;;;10.40;99.90;;;;;;485230;245;28369;-80
2021/11/01 05:08:23;;;;;;;2.07;1.77;;;10.30;99.90;;;;;;485240;242;28513;-81
2021/11/01 05:10:35;;;;;;;1.50;1.40;;;10.40;99.90;;;;;;485245;242;27991;-81
2021/11/01 05:12:36;;;;;;;8.60;1.70;;;10.30;99.90;;;;;;484367;245;28227;-82
2021/11/01 05:14:52;;;;;;;2.03;1.50;;;10.30;99.90;;;;;;484391;242;27827;-80
2021/11/01 05:16:51;;;;;;;3.03;2.20;;;10.30;99.90;;;;;;480402;242;27827;-81
2021/11/01 05:18:50;;;;;;;7.00;2.40;;;10.30;99.90;;;;;;484591;245;28120;-80
2021/11/01 05:21:36;;;;;;;2.60;2.00;;;10.30;99.90;;;;;;484669;242;28568;-81
2021/11/01 05:23:06;;;;;;;4.00;2.00;;;10.30;99.90;;;;;;481648;245;27806;-83
2021/11/01 05:25:03;;;;;;;5.30;2.40;;;10.30;99.90;;;;;;484138;245;28020;-81
2021/11/01 05:27:19;;;;;;;2.10;2.00;;;10.30;99.90;;;;;;485079;245;27983;-82
2021/11/01 05:29:10;;;;;;;3.33;2.17;;;10.30;99.90;;;;;;484262;245;28483;-82
2021/11/01 05:31:16;;;;;;;2.20;1.80;;;10.30;99.90;;;;;;485208;245;28110;-80
2021/11/01 05:33:33;;;;;;;4.53;1.90;;;10.30;99.90;;;;;;485022;245;27953;-80
2021/11/01 05:35:12;;;;;;;4.37;2.10;;;10.20;99.90;;;;;;483659;245;28122;-81
2021/11/01 05:37:13;;;;;;;2.83;1.97;;;10.20;99.90;;;;;;485472;245;28133;-82
2021/11/01 05:39:14;;;;;;;3.60;2.03;;;10.20;99.90;;;;;;485491;245;28058;-80
2021/11/01 05:41:16;;;;;;;2.80;1.67;;;10.20;99.90;;;;;;485474;245;28198;-80
2021/11/01 05:43:17;;;;;;;4.83;2.00;;;10.20;99.90;;;;;;485353;245;28202;-81
2021/11/01 05:45:18;;;;;;;3.33;2.00;;;10.20;99.90;;;;;;485289;245;28044;-81
2021/11/01 05:47:19;;;;;;;4.40;2.17;;;10.20;99.90;;;;;;485352;245;27921;-80
2021/11/01 05:49:22;;;;;;;2.00;1.80;;;10.20;99.90;;;;;;485329;245;28500;-81
2021/11/01 05:51:23;;;;;;;3.57;1.97;;;10.20;99.90;;;;;;485133;245;28507;-80
2021/11/01 05:53:26;;;;;;;4.87;1.87;;;10.20;99.90;;;;;;485273;245;28293;-81
2021/11/01 05:55:36;;;;;;;3.43;1.90;;;10.20;99.90;;;;;;485060;245;27753;-82
2021/11/01 05:57:43;;;;;;;4.30;1.93;;;10.20;99.90;;;;;;484605;245;27905;-80
2021/11/01 06:04:06;;;;;;;4.23;1.60;;;10.20;99.90;;;;;;485292;245;28345;-80
2021/11/01 06:06:22;;;;;;;3.37;2.13;;;10.20;99.90;;;;;;484802;245;28305;-81
2021/11/01 06:14:56;;;;;;;4.40;1.60;;;10.20;99.90;;;;;;485268;245;28154;-81
2021/11/01 06:16:58;;;;;;;2.60;1.67;;;10.20;99.90;;;;;;485225;245;27855;-80
2021/11/01 06:18:58;;;;;;;3.33;1.77;;;10.10;99.90;;;;;;485063;245;28109;-77
2021/11/01 06:21:00;;;;;;;2.53;1.87;;;10.20;99.90;;;;;;485222;242;27760;-80
2021/11/01 06:23:01;;;;;;;3.90;1.90;;;10.10;99.90;;;;;;485243;245;27866;-80
2021/11/01 06:25:09;;;;;;;2.53;1.90;;;10.10;99.90;;;;;;485252;245;28058;-81
2021/11/01 06:27:11;;;;;;;1.77;1.50;;;10.20;99.90;;;;;;483594;245;28420;-78
2021/11/01 06:29:10;;;;;;;5.70;2.23;;;10.20;99.90;;;;;;479423;248;28562;-81
2021/11/01 06:31:14;;;;;;;1.63;1.50;;;10.20;99.90;;;;;;479596;248;27961;-81
2021/11/01 06:42:24;;;;;;;3.30;1.93;;;10.10;99.90;;;;;;485264;245;27977;-81
2021/11/01 06:44:26;;;;;;;2.70;1.80;;;10.10;99.90;;;;;;484718;245;28055;-79
2021/11/01 06:58:23;;;;;;;5.13;2.10;;;10.10;99.90;;;;;;476936;249;27973;-78
2021/11/01 07:16:07;;;;;;;6.20;3.33;;;10.20;99.90;;;;;;476915;249;27916;-80
2021/11/01 07:18:07;;;;;;;7.13;2.83;;;10.30;99.90;;;;;;476534;249;28000;-79
2021/11/01 07:20:18;;;;;;;4.80;2.93;;;10.30;99.90;;;;;;476781;249;28027;-76
2021/11/01 07:24:36;;;;;;;6.17;3.13;;;10.20;99.90;;;;;;469510;249;28270;-78
2021/11/01 09:05:31;;;;;;;5.70;3.10;;;10.50;99.90;;;;;;488170;243;28103;-80
2021/11/01 09:07:20;;;;;;;6.27;3.20;;;10.50;99.90;;;;;;485906;243;27931;-82
2021/11/01 09:18:43;;;;;;;4.83;3.30;;;10.50;99.90;;;;;;488293;243;27542;-80
2021/11/01 09:23:07;;;;;;;6.00;2.80;;;10.80;99.90;;;;;;489093;243;27970;-79
2021/11/01 09:25:03;;;;;;;5.17;2.37;;;10.80;99.90;;;;;;487368;243;27705;-83
2021/11/01 09:26:54;;;;;;;3.70;2.20;;;10.80;99.90;;;;;;487880;243;28067;-81
2021/11/01 09:29:00;;;;;;;3.00;2.60;;;10.70;99.90;;;;;;488716;243;28417;-82
2021/11/01 09:41:43;;;;;;;6.80;2.47;;;10.70;99.90;;;;;;488960;243;27924;-82
2021/11/01 09:43:45;;;;;;;5.47;2.33;;;10.70;99.90;;;;;;488818;243;28158;-79
2021/11/01 09:45:46;;;;;;;7.00;2.40;;;10.60;99.90;;;;;;488967;243;28135;-84
2021/11/01 09:47:47;;;;;;;5.70;2.60;;;10.60;99.90;;;;;;488641;243;27846;-82
2021/11/01 09:49:48;;;;;;;2.80;2.20;;;10.50;99.90;;;;;;488458;243;27986;-82
2021/11/01 09:51:50;;;;;;;3.00;2.20;;;10.60;99.90;;;;;;488419;243;27957;-82
2021/11/01 09:53:50;;;;;;;8.97;2.50;;;10.60;99.90;;;;;;488198;243;28027;-80
2021/11/01 10:00:21;;;;;;;6.77;2.47;;;10.60;99.90;;;;;;488216;243;28534;-80
2021/11/01 10:02:23;;;;;;;5.77;2.23;;;10.70;99.90;;;;;;488284;243;28487;-80
2021/11/01 10:04:24;;;;;;;1.70;1.60;;;10.80;99.90;;;;;;488424;243;28523;-81
2021/11/01 10:06:25;;;;;;;5.40;1.97;;;10.90;99.90;;;;;;488540;243;28450;-81
2021/11/01 10:08:26;;;;;;;9.43;2.60;;;10.90;99.90;;;;;;488577;243;27963;-82
2021/11/01 10:10:30;;;;;;;3.67;1.63;;;10.90;99.90;;;;;;488455;243;27944;-81
2021/11/01 10:12:33;;;;;;;4.17;2.20;;;10.80;99.90;;;;;;488304;243;27987;-80
2021/11/01 10:14:30;;;;;;;7.23;2.37;;;10.70;99.90;;;;;;488185;243;28143;-82
2021/11/01 10:18:50;;;;;;;4.83;2.07;;;10.80;99.90;;;;;;488332;243;28056;-79
2021/11/01 10:20:52;;;;;;;4.23;2.27;;;10.80;99.90;;;;;;488405;243;28153;-81
2021/11/01 10:22:53;;;;;;;7.90;2.10;;;10.80;99.90;;;;;;488477;243;28039;-82
2021/11/01 10:24:54;;;;;;;3.77;1.87;;;11.00;99.90;;;;;;488566;243;27943;-82
2021/11/01 10:26:57;;;;;;;6.27;2.10;;;11.10;99.90;;;;;;488366;243;27976;-81
2021/11/01 10:28:57;;;;;;;7.10;2.10;;;11.30;99.90;;;;;;488352;243;28173;-80
2021/11/01 10:30:58;;;;;;;5.03;1.90;;;11.40;99.90;;;;;;488441;243;28061;-82
2021/11/01 10:32:59;;;;;;;7.83;2.00;;;11.20;99.90;;;;;;488389;243;28345;-82
2021/11/01 10:35:00;;;;;;;4.60;2.10;;;11.20;99.90;;;;;;488403;243;28635;-82
2021/11/01 10:37:02;;;;;;;3.97;1.80;;;11.30;99.90;;;;;;488323;243;28809;-81
2021/11/01 10:39:05;;;;;;;4.10;1.93;;;11.50;99.90;;;;;;488419;243;28798;-80
2021/11/01 10:41:22;;;;;;;4.70;1.70;;;11.60;99.90;;;;;;488227;243;28639;-83
2021/11/01 11:15:05;;;;;;;3.90;1.63;;;11.50;99.90;;;;;;475345;245;28396;-78
2021/11/01 11:17:11;;;;;;;3.70;1.57;;;11.50;99.90;;;;;;488052;243;28361;-80
2021/11/01 11:19:20;;;;;;;6.30;2.10;;;11.40;99.90;;;;;;487318;243;28587;-83
2021/11/01 11:21:35;;;;;;;2.00;1.50;;;11.30;99.90;;;;;;487038;243;28301;-79
2021/11/01 11:32:12;;;;;;;4.73;1.87;;;11.60;99.90;;;;;;488455;243;28055;-80
2021/11/01 11:40:23;;;;;;;6.90;2.00;;;11.80;99.90;;;;;;488515;243;28434;-82
2021/11/01 11:48:54;;;;;;;2.63;1.67;;;11.70;99.90;;;;;;488197;243;28138;-80
2021/11/01 11:50:54;;;;;;;9.20;2.10;;;11.70;99.90;;;;;;488368;243;28171;-82
2021/11/01 11:52:55;;;;;;;3.70;1.73;;;11.70;99.90;;;;;;488452;243;28326;-82
2021/11/01 11:55:03;;;;;;;3.10;1.83;;;11.70;99.90;;;;;;488473;243;28123;-82
2021/11/01 11:57:03;;;;;;;6.00;1.93;;;11.50;99.90;;;;;;487806;243;28367;-82
2021/11/01 11:58:59;;;;;;;2.87;1.53;;;11.40;99.90;;;;;;487980;243;28400;-80
2021/11/01 12:01:00;;;;;;;4.70;1.97;;;11.40;99.90;;;;;;488484;243;28366;-82
2021/11/01 12:03:01;;;;;;;3.70;1.90;;;11.40;99.90;;;;;;488563;243;28371;-82
2021/11/01 12:05:02;;;;;;;3.33;1.80;;;11.50;99.90;;;;;;488593;243;28995;-82
2021/11/01 12:07:04;;;;;;;5.63;1.70;;;11.80;99.90;;;;;;488548;243;28956;-82
2021/11/01 12:09:08;;;;;;;2.30;1.87;;;11.90;99.90;;;;;;488538;243;28648;-81
2021/11/01 12:17:43;;;;;;;2.80;1.67;;;11.90;99.90;;;;;;488493;243;28418;-82
2021/11/01 12:19:45;;;;;;;2.27;2.07;;;11.70;99.90;;;;;;488494;243;28532;-82
2021/11/01 12:21:47;;;;;;;2.37;1.70;;;11.70;99.90;;;;;;488464;243;28165;-83
2021/11/01 12:23:48;;;;;;;5.43;1.77;;;11.80;99.90;;;;;;488469;243;29058;-83
2021/11/01 12:25:49;;;;;;;4.60;1.80;;;11.90;99.90;;;;;;488553;243;28798;-81
2021/11/01 12:27:55;;;;;;;3.33;1.50;;;11.90;99.90;;;;;;488502;243;29119;-81
2021/11/01 12:29:52;;;;;;;2.10;1.20;;;11.90;99.90;;;;;;488041;243;28091;-82
2021/11/01 12:31:53;;;;;;;3.27;1.30;;;11.90;99.90;;;;;;488515;243;28124;-82
2021/11/01 12:34:00;;;;;;;3.40;1.70;;;12.00;99.90;;;;;;488444;243;28888;-83
2021/11/01 12:35:59;;;;;;;3.27;1.60;;;11.90;99.90;;;;;;487924;243;28569;-82
2021/11/01 12:38:00;;;;;;;3.93;1.87;;;12.10;99.90;;;;;;488266;243;29349;-81
2021/11/01 12:39:59;;;;;;;4.27;1.80;;;12.00;99.90;;;;;;488256;243;28559;-82
2021/11/01 12:47:02;;;;;;;1.90;1.40;;;11.90;99.90;;;;;;488471;243;28355;-83
2021/11/01 12:57:28;;;;;;;5.20;1.50;;;12.10;99.90;;;;;;483136;245;27743;-83
2021/11/01 12:59:28;;;;;;;4.10;1.53;;;12.10;99.90;;;;;;491105;242;28915;-81
2021/11/01 13:01:30;;;;;;;3.10;1.70;;;12.20;99.90;;;;;;492120;240;28738;-82
2021/11/01 13:03:31;;;;;;;3.50;1.90;;;12.40;99.90;;;;;;490147;240;28487;-84
2021/11/01 13:05:32;;;;;;;6.67;1.40;;;12.40;99.90;;;;;;483541;245;28535;-82
2021/11/01 13:09:53;;;;;;;1.53;1.43;;;12.40;99.90;;;;;;485664;245;28154;-82
2021/11/01 13:12:02;;;;;;;3.67;1.40;;;12.40;99.90;;;;;;485717;245;28323;-79
2021/11/01 13:14:30;;;;;;;3.30;1.30;;;12.40;99.90;;;;;;483144;244;28658;-83
2021/11/01 13:18:38;;;;;;;2.80;1.20;;;;;;;;;;490759;240;28455;-83
2021/11/01 13:20:37;;;;;;;2.90;1.50;;;12.40;99.90;;;;;;484322;240;29729;-83
2021/11/01 13:22:39;;;;;;;2.10;1.77;;;12.50;99.90;;;;;;481501;245;29387;-80
2021/11/01 13:24:48;;;;;;;2.43;1.83;;;12.50;99.90;;;;;;481035;245;28283;-83
2021/11/01 13:27:01;;;;;;;2.00;1.80;;;;;;;;;;483339;245;28194;-80
2021/11/01 13:38:01;;;;;;;2.00;1.50;;;12.10;99.90;;;;;;485664;245;29010;-82
2021/11/01 13:40:03;;;;;;;1.63;1.37;;;;;;;;;;485499;245;28352;-84
2021/11/01 13:42:03;;;;;;;2.13;1.33;;;12.10;99.90;;;;;;485794;245;27333;-82
2021/11/01 13:44:04;;;;;;;1.37;1.20;;;12.20;99.90;;;;;;485719;245;28661;-81
2021/11/01 13:46:09;;;;;;;1.40;1.30;;;;;;;;;;485689;245;28582;-80
2021/11/01 13:48:10;;;;;;;4.70;1.40;;;12.20;99.90;;;;;;485757;245;27317;-82
2021/11/01 13:50:11;;;;;;;2.10;1.30;;;12.10;99.90;;;;;;485524;245;28921;-82
2021/11/01 13:52:31;;;;;;;2.87;1.40;;;;;;;;;;485700;245;29662;-82
2021/11/01 13:56:34;;;;;;;1.63;1.30;;;12.00;99.90;;;;;;485465;245;28228;-80
2021/11/01 14:00:50;;;;;;;3.13;1.50;;;;;;;;;;485465;245;28182;-81
2021/11/01 14:03:05;;;;;;;1.70;1.40;;;11.80;99.90;;;;;;485024;245;27303;-82
2021/11/01 14:14:25;;;;;;;2.07;1.87;;;11.40;99.90;;;;;;485405;245;28415;-80
2021/11/01 14:16:23;;;;;;;2.50;1.60;;;11.40;99.90;;;;;;485130;245;28277;-78
2021/11/01 14:26:43;;;;;;;1.73;1.40;;;11.50;99.90;;;;;;485759;245;28182;-82
2021/11/01 15:02:42;;;;;;;1.90;1.80;;;10.50;99.90;;;;;;462824;256;28206;-79
2021/11/01 15:05:30;;;;;;;1.73;1.60;;;10.50;99.90;;;;;;468637;250;28069;-79
2021/11/01 15:11:16;;;;;;;1.40;1.30;;;10.70;99.90;;;;;;471052;252;28024;-78
2021/11/01 15:15:15;;;;;;;1.77;1.67;;;10.60;99.90;;;;;;471070;252;28090;-77
2021/11/01 15:28:17;;;;;;;1.60;1.50;;;10.20;99.90;;;;;;462798;256;28140;-80
2021/11/01 15:37:13;;;;;;;3.50;1.30;;;10.20;99.90;;;;;;471029;252;28151;-80
2021/11/01 16:18:10;;;;;;;1.73;1.63;;;10.20;99.90;;;;;;470756;251;28625;-78
2021/11/01 16:20:09;;;;;;;1.40;1.30;;;10.20;99.90;;;;;;471152;252;28058;-80
2021/11/01 16:22:09;;;;;;;1.70;1.50;;;10.10;99.90;;;;;;471288;251;28268;-80
2021/11/01 16:24:12;;;;;;;1.90;1.70;;;10.10;99.90;;;;;;471876;252;28360;-79
2021/11/01 16:26:32;;;;;;;2.33;1.57;;;10.10;99.90;;;;;;471794;252;27960;-80
2021/11/01 16:28:31;;;;;;;1.33;1.27;;;10.20;99.90;;;;;;471604;252;27993;-80
2021/11/01 16:30:32;;;;;;;1.60;1.50;;;10.10;99.90;;;;;;471439;251;28186;-78
2021/11/01 16:32:38;;;;;;;3.40;1.63;;;10.10;99.90;;;;;;471280;252;27894;-80
2021/11/01 16:34:40;;;;;;;2.20;1.70;;;10.10;99.90;;;;;;469875;252;27774;-80
2021/11/01 16:38:51;;;;;;;2.37;1.40;;;10.10;99.90;;;;;;471243;252;28003;-80
2021/11/01 16:40:46;;;;;;;1.23;1.20;;;10.10;99.90;;;;;;470995;251;28208;-80
2021/11/01 16:42:47;;;;;;;1.60;1.50;;;10.10;99.90;;;;;;471485;252;27841;-80
2021/11/01 16:45:03;;;;;;;1.80;1.60;;;10.00;99.90;;;;;;471439;252;27578;-79
2021/11/01 16:46:59;;;;;;;4.30;1.70;;;10.00;99.90;;;;;;470774;252;27893;-77
2021/11/01 16:49:00;;;;;;;2.33;1.70;;;9.90;99.90;;;;;;471217;252;27837;-80
2021/11/01 16:51:03;;;;;;;1.77;1.67;;;9.90;99.90;;;;;;471415;252;27856;-80
2021/11/01 16:53:05;;;;;;;2.60;1.97;;;9.80;99.90;;;;;;471060;251;28039;-80
2021/11/01 16:55:13;;;;;;;2.00;1.90;;;9.80;99.90;;;;;;471176;252;28039;-80
2021/11/01 16:57:18;;;;;;;2.63;2.43;;;9.60;99.90;;;;;;470383;250;28441;-79
2021/11/01 17:01:43;;;;;;;3.93;2.60;;;9.50;99.90;;;;;;471035;251;27813;-77
2021/11/01 17:03:50;;;;;;;5.97;2.97;;;9.40;99.90;;;;;;470508;252;28007;-79
2021/11/01 17:21:18;;;;;;;4.90;2.80;;;9.30;99.90;;;;;;488375;243;27857;-79
2021/11/01 17:21:38;;;;;;;2.37;2.17;;;9.20;99.90;;;;;;488375;243;28457;-79
2021/11/01 17:24:02;;;;;;;2.43;2.20;;;9.20;99.90;;;;;;488030;243;27830;-78
2021/11/01 17:30:14;;;;;;;3.03;2.03;;;9.00;99.90;;;;;;487602;244;27628;-77
2021/11/01 17:39:08;;;;;;;4.60;2.60;;;8.90;99.90;;;;;;475011;244;27553;-79
2021/11/01 22:20:11;;;;;;;7.37;3.00;;;6.70;99.90;;;;;;484154;246;27496;-80
2021/11/01 22:24:41;;;;;;;4.43;3.40;;;6.70;99.90;;;;;;482693;246;27797;-84
2021/11/01 22:27:18;;;;;;;3.60;2.80;;;6.70;99.90;;;;;;482000;246;27569;-81